sensor_id;sensor_type;location;lat;lon;timestamp;P1;durP1;ratioP1;P2;durP2;ratioP2
12921;SDS011;6528;48.086;16.282;2023-09-30T00:02:10;4.57;;;4.17;;
12921;SDS011;6528;48.086;16.282;2023-09-30T00:04:39;3.90;;;3.60;;
12921;SDS011;6528;48.086;16.282;2023-09-30T00:07:06;4.07;;;3.77;;
12921;SDS011;6528;48.086;16.282;2023-09-30T00:09:34;4.60;;;4.20;;
12921;SDS011;6528;48.086;16.282;2023-09-30T00:12:02;4.17;;;3.87;;
12921;SDS011;6528;48.086;16.282;2023-09-30T00:14:29;3.90;;;3.60;;
12921;SDS011;6528;48.086;16.282;2023-09-30T00:16:57;4.23;;;3.83;;
12921;SDS011;6528;48.086;16.282;2023-09-30T00:19:26;4.90;;;4.50;;
12921;SDS011;6528;48.086;16.282;2023-09-30T00:21:54;3.63;;;3.33;;
12921;SDS011;6528;48.086;16.282;2023-09-30T00:24:21;3.70;;;3.40;;
12921;SDS011;6528;48.086;16.282;2023-09-30T00:26:48;4.40;;;4.00;;
12921;SDS011;6528;48.086;16.282;2023-09-30T00:29:18;4.50;;;4.10;;
12921;SDS011;6528;48.086;16.282;2023-09-30T00:31:45;3.90;;;3.60;;
12921;SDS011;6528;48.086;16.282;2023-09-30T00:34:13;4.60;;;4.20;;
12921;SDS011;6528;48.086;16.282;2023-09-30T00:36:40;4.00;;;3.70;;
12921;SDS011;6528;48.086;16.282;2023-09-30T00:39:08;3.83;;;3.53;;
12921;SDS011;6528;48.086;16.282;2023-09-30T00:41:38;3.80;;;3.57;;
12921;SDS011;6528;48.086;16.282;2023-09-30T00:44:06;4.33;;;4.00;;
12921;SDS011;6528;48.086;16.282;2023-09-30T00:46:39;4.60;;;4.20;;
12921;SDS011;6528;48.086;16.282;2023-09-30T00:49:08;4.00;;;3.70;;
12921;SDS011;6528;48.086;16.282;2023-09-30T00:51:36;4.20;;;3.80;;
12921;SDS011;6528;48.086;16.282;2023-09-30T00:54:05;4.20;;;3.90;;
12921;SDS011;6528;48.086;16.282;2023-09-30T00:56:33;3.93;;;3.60;;
12921;SDS011;6528;48.086;16.282;2023-09-30T00:59:03;3.83;;;3.53;;
12921;SDS011;6528;48.086;16.282;2023-09-30T01:01:30;4.00;;;3.70;;
12921;SDS011;6528;48.086;16.282;2023-09-30T01:03:58;4.03;;;3.73;;
12921;SDS011;6528;48.086;16.282;2023-09-30T01:06:27;3.53;;;3.23;;
12921;SDS011;6528;48.086;16.282;2023-09-30T01:08:55;4.23;;;3.90;;
12921;SDS011;6528;48.086;16.282;2023-09-30T01:11:22;3.90;;;3.60;;
12921;SDS011;6528;48.086;16.282;2023-09-30T01:13:50;4.00;;;3.70;;
12921;SDS011;6528;48.086;16.282;2023-09-30T01:16:18;4.10;;;3.80;;
12921;SDS011;6528;48.086;16.282;2023-09-30T01:18:46;4.97;;;3.87;;
12921;SDS011;6528;48.086;16.282;2023-09-30T01:21:13;4.20;;;3.90;;
12921;SDS011;6528;48.086;16.282;2023-09-30T01:23:41;4.20;;;3.90;;
12921;SDS011;6528;48.086;16.282;2023-09-30T01:26:11;3.40;;;3.20;;
12921;SDS011;6528;48.086;16.282;2023-09-30T01:28:39;3.67;;;3.47;;
12921;SDS011;6528;48.086;16.282;2023-09-30T01:31:08;3.93;;;3.63;;
12921;SDS011;6528;48.086;16.282;2023-09-30T01:33:35;3.60;;;3.40;;
12921;SDS011;6528;48.086;16.282;2023-09-30T01:36:03;4.20;;;3.90;;
12921;SDS011;6528;48.086;16.282;2023-09-30T01:38:32;4.00;;;3.70;;
12921;SDS011;6528;48.086;16.282;2023-09-30T01:40:59;3.90;;;3.63;;
12921;SDS011;6528;48.086;16.282;2023-09-30T01:43:27;4.40;;;4.00;;
12921;SDS011;6528;48.086;16.282;2023-09-30T01:45:56;4.13;;;3.83;;
12921;SDS011;6528;48.086;16.282;2023-09-30T01:48:25;3.83;;;3.53;;
12921;SDS011;6528;48.086;16.282;2023-09-30T01:50:52;3.40;;;3.20;;
12921;SDS011;6528;48.086;16.282;2023-09-30T01:53:20;4.37;;;4.07;;
12921;SDS011;6528;48.086;16.282;2023-09-30T01:55:47;3.57;;;3.37;;
12921;SDS011;6528;48.086;16.282;2023-09-30T01:58:15;4.50;;;4.20;;
12921;SDS011;6528;48.086;16.282;2023-09-30T02:00:42;4.20;;;3.90;;
12921;SDS011;6528;48.086;16.282;2023-09-30T02:03:09;3.43;;;3.20;;
12921;SDS011;6528;48.086;16.282;2023-09-30T02:05:38;3.83;;;3.53;;
12921;SDS011;6528;48.086;16.282;2023-09-30T02:08:06;4.10;;;3.70;;
12921;SDS011;6528;48.086;16.282;2023-09-30T02:10:33;3.53;;;3.33;;
12921;SDS011;6528;48.086;16.282;2023-09-30T02:13:01;4.60;;;4.20;;
12921;SDS011;6528;48.086;16.282;2023-09-30T02:15:33;3.80;;;3.50;;
12921;SDS011;6528;48.086;16.282;2023-09-30T02:18:00;3.30;;;3.10;;
12921;SDS011;6528;48.086;16.282;2023-09-30T02:20:30;4.20;;;3.73;;
12921;SDS011;6528;48.086;16.282;2023-09-30T02:22:58;3.57;;;3.27;;
12921;SDS011;6528;48.086;16.282;2023-09-30T02:25:29;4.47;;;4.17;;
12921;SDS011;6528;48.086;16.282;2023-09-30T02:27:57;3.67;;;3.40;;
12921;SDS011;6528;48.086;16.282;2023-09-30T02:30:24;3.67;;;3.37;;
12921;SDS011;6528;48.086;16.282;2023-09-30T02:32:52;3.93;;;3.63;;
12921;SDS011;6528;48.086;16.282;2023-09-30T02:35:20;4.13;;;3.77;;
12921;SDS011;6528;48.086;16.282;2023-09-30T02:37:47;3.40;;;3.10;;
12921;SDS011;6528;48.086;16.282;2023-09-30T02:40:15;3.70;;;3.40;;
12921;SDS011;6528;48.086;16.282;2023-09-30T02:42:43;3.40;;;3.20;;
12921;SDS011;6528;48.086;16.282;2023-09-30T02:45:11;4.00;;;3.70;;
12921;SDS011;6528;48.086;16.282;2023-09-30T02:47:39;4.13;;;3.83;;
12921;SDS011;6528;48.086;16.282;2023-09-30T02:50:07;3.60;;;3.40;;
12921;SDS011;6528;48.086;16.282;2023-09-30T02:52:38;3.60;;;3.40;;
12921;SDS011;6528;48.086;16.282;2023-09-30T02:55:08;3.70;;;3.50;;
12921;SDS011;6528;48.086;16.282;2023-09-30T02:57:37;3.53;;;3.33;;
12921;SDS011;6528;48.086;16.282;2023-09-30T03:00:05;3.73;;;3.43;;
12921;SDS011;6528;48.086;16.282;2023-09-30T03:02:53;3.80;;;3.50;;
12921;SDS011;6528;48.086;16.282;2023-09-30T03:05:22;4.00;;;3.70;;
12921;SDS011;6528;48.086;16.282;2023-09-30T03:07:50;3.70;;;3.50;;
12921;SDS011;6528;48.086;16.282;2023-09-30T03:10:17;3.90;;;3.60;;
12921;SDS011;6528;48.086;16.282;2023-09-30T03:12:50;3.80;;;3.50;;
12921;SDS011;6528;48.086;16.282;2023-09-30T03:15:18;3.40;;;3.20;;
12921;SDS011;6528;48.086;16.282;2023-09-30T03:17:46;4.07;;;3.70;;
12921;SDS011;6528;48.086;16.282;2023-09-30T03:20:18;3.37;;;3.17;;
12921;SDS011;6528;48.086;16.282;2023-09-30T03:22:47;3.37;;;3.17;;
12921;SDS011;6528;48.086;16.282;2023-09-30T03:25:16;4.00;;;3.70;;
12921;SDS011;6528;48.086;16.282;2023-09-30T03:27:47;3.40;;;3.20;;
12921;SDS011;6528;48.086;16.282;2023-09-30T03:30:15;3.40;;;3.10;;
12921;SDS011;6528;48.086;16.282;2023-09-30T03:32:44;3.60;;;3.30;;
12921;SDS011;6528;48.086;16.282;2023-09-30T03:35:14;3.63;;;3.30;;
12921;SDS011;6528;48.086;16.282;2023-09-30T03:37:45;3.07;;;2.87;;
12921;SDS011;6528;48.086;16.282;2023-09-30T03:40:14;3.20;;;3.00;;
12921;SDS011;6528;48.086;16.282;2023-09-30T03:42:46;3.77;;;3.47;;
12921;SDS011;6528;48.086;16.282;2023-09-30T03:45:18;3.27;;;3.07;;
12921;SDS011;6528;48.086;16.282;2023-09-30T03:47:46;3.53;;;3.30;;
12921;SDS011;6528;48.086;16.282;2023-09-30T03:50:15;3.77;;;3.47;;
12921;SDS011;6528;48.086;16.282;2023-09-30T03:52:43;3.97;;;3.67;;
12921;SDS011;6528;48.086;16.282;2023-09-30T03:55:14;3.90;;;3.60;;
12921;SDS011;6528;48.086;16.282;2023-09-30T03:57:47;3.40;;;2.93;;
12921;SDS011;6528;48.086;16.282;2023-09-30T04:00:16;3.47;;;3.20;;
12921;SDS011;6528;48.086;16.282;2023-09-30T04:02:50;3.90;;;3.60;;
12921;SDS011;6528;48.086;16.282;2023-09-30T04:05:21;3.33;;;3.13;;
12921;SDS011;6528;48.086;16.282;2023-09-30T04:07:56;3.23;;;3.00;;
12921;SDS011;6528;48.086;16.282;2023-09-30T04:10:24;3.20;;;3.00;;
12921;SDS011;6528;48.086;16.282;2023-09-30T04:12:52;3.50;;;3.30;;
12921;SDS011;6528;48.086;16.282;2023-09-30T04:15:19;2.93;;;2.73;;
12921;SDS011;6528;48.086;16.282;2023-09-30T04:17:47;3.50;;;3.20;;
12921;SDS011;6528;48.086;16.282;2023-09-30T04:20:15;3.20;;;3.00;;
12921;SDS011;6528;48.086;16.282;2023-09-30T04:22:45;3.23;;;3.03;;
12921;SDS011;6528;48.086;16.282;2023-09-30T04:25:16;3.27;;;3.07;;
12921;SDS011;6528;48.086;16.282;2023-09-30T04:27:44;3.23;;;3.03;;
12921;SDS011;6528;48.086;16.282;2023-09-30T04:30:16;4.20;;;3.90;;
12921;SDS011;6528;48.086;16.282;2023-09-30T04:32:44;4.20;;;3.90;;
12921;SDS011;6528;48.086;16.282;2023-09-30T04:35:11;3.60;;;3.40;;
12921;SDS011;6528;48.086;16.282;2023-09-30T04:37:39;3.90;;;3.60;;
12921;SDS011;6528;48.086;16.282;2023-09-30T04:40:07;3.17;;;2.87;;
12921;SDS011;6528;48.086;16.282;2023-09-30T04:42:48;4.20;;;3.90;;
12921;SDS011;6528;48.086;16.282;2023-09-30T04:45:16;3.77;;;3.47;;
12921;SDS011;6528;48.086;16.282;2023-09-30T04:47:47;3.57;;;3.27;;
12921;SDS011;6528;48.086;16.282;2023-09-30T04:50:17;3.70;;;3.50;;
12921;SDS011;6528;48.086;16.282;2023-09-30T04:52:49;3.33;;;3.13;;
12921;SDS011;6528;48.086;16.282;2023-09-30T04:55:18;3.73;;;3.43;;
12921;SDS011;6528;48.086;16.282;2023-09-30T04:57:46;4.13;;;3.83;;
12921;SDS011;6528;48.086;16.282;2023-09-30T05:00:15;4.13;;;3.83;;
12921;SDS011;6528;48.086;16.282;2023-09-30T05:02:54;3.87;;;3.57;;
12921;SDS011;6528;48.086;16.282;2023-09-30T05:05:22;3.93;;;3.63;;
12921;SDS011;6528;48.086;16.282;2023-09-30T05:07:50;3.50;;;3.20;;
12921;SDS011;6528;48.086;16.282;2023-09-30T05:10:17;4.60;;;3.97;;
12921;SDS011;6528;48.086;16.282;2023-09-30T05:12:46;4.20;;;3.90;;
12921;SDS011;6528;48.086;16.282;2023-09-30T05:15:14;4.80;;;4.40;;
12921;SDS011;6528;48.086;16.282;2023-09-30T05:17:43;3.90;;;3.60;;
12921;SDS011;6528;48.086;16.282;2023-09-30T05:20:15;4.20;;;3.90;;
12921;SDS011;6528;48.086;16.282;2023-09-30T05:22:46;4.10;;;3.70;;
12921;SDS011;6528;48.086;16.282;2023-09-30T05:25:15;4.37;;;3.97;;
12921;SDS011;6528;48.086;16.282;2023-09-30T05:27:44;4.17;;;3.77;;
12921;SDS011;6528;48.086;16.282;2023-09-30T05:30:15;4.47;;;4.07;;
12921;SDS011;6528;48.086;16.282;2023-09-30T05:32:43;4.20;;;3.90;;
12921;SDS011;6528;48.086;16.282;2023-09-30T05:35:13;5.00;;;3.83;;
12921;SDS011;6528;48.086;16.282;2023-09-30T05:37:44;4.50;;;4.10;;
12921;SDS011;6528;48.086;16.282;2023-09-30T05:40:12;4.97;;;4.47;;
12921;SDS011;6528;48.086;16.282;2023-09-30T05:42:54;4.43;;;4.03;;
12921;SDS011;6528;48.086;16.282;2023-09-30T05:45:25;4.20;;;3.60;;
12921;SDS011;6528;48.086;16.282;2023-09-30T05:47:55;4.43;;;4.03;;
12921;SDS011;6528;48.086;16.282;2023-09-30T05:50:24;4.07;;;3.67;;
12921;SDS011;6528;48.086;16.282;2023-09-30T05:52:53;4.13;;;3.73;;
12921;SDS011;6528;48.086;16.282;2023-09-30T05:55:22;4.40;;;3.83;;
12921;SDS011;6528;48.086;16.282;2023-09-30T05:57:53;4.60;;;4.20;;
12921;SDS011;6528;48.086;16.282;2023-09-30T06:00:21;5.20;;;4.13;;
12921;SDS011;6528;48.086;16.282;2023-09-30T06:02:51;5.40;;;4.57;;
12921;SDS011;6528;48.086;16.282;2023-09-30T06:05:19;5.60;;;4.70;;
12921;SDS011;6528;48.086;16.282;2023-09-30T06:07:46;6.00;;;4.97;;
12921;SDS011;6528;48.086;16.282;2023-09-30T06:10:14;5.77;;;5.17;;
12921;SDS011;6528;48.086;16.282;2023-09-30T06:12:48;8.63;;;4.67;;
12921;SDS011;6528;48.086;16.282;2023-09-30T06:15:23;4.80;;;4.40;;
12921;SDS011;6528;48.086;16.282;2023-09-30T06:17:55;8.10;;;5.53;;
12921;SDS011;6528;48.086;16.282;2023-09-30T06:20:24;5.40;;;4.90;;
12921;SDS011;6528;48.086;16.282;2023-09-30T06:22:57;5.27;;;4.77;;
12921;SDS011;6528;48.086;16.282;2023-09-30T06:25:25;6.17;;;5.20;;
12921;SDS011;6528;48.086;16.282;2023-09-30T06:27:53;9.20;;;6.60;;
12921;SDS011;6528;48.086;16.282;2023-09-30T06:30:21;14.93;;;9.03;;
12921;SDS011;6528;48.086;16.282;2023-09-30T06:32:57;14.10;;;9.57;;
12921;SDS011;6528;48.086;16.282;2023-09-30T06:35:28;15.33;;;9.83;;
12921;SDS011;6528;48.086;16.282;2023-09-30T06:38:03;12.67;;;8.90;;
12921;SDS011;6528;48.086;16.282;2023-09-30T06:40:33;14.40;;;8.60;;
12921;SDS011;6528;48.086;16.282;2023-09-30T06:43:05;14.57;;;9.37;;
12921;SDS011;6528;48.086;16.282;2023-09-30T06:45:32;16.43;;;9.73;;
12921;SDS011;6528;48.086;16.282;2023-09-30T06:47:59;16.53;;;10.00;;
12921;SDS011;6528;48.086;16.282;2023-09-30T06:50:27;18.30;;;9.43;;
12921;SDS011;6528;48.086;16.282;2023-09-30T06:52:55;19.20;;;10.43;;
12921;SDS011;6528;48.086;16.282;2023-09-30T06:55:22;15.23;;;9.20;;
12921;SDS011;6528;48.086;16.282;2023-09-30T06:57:51;16.70;;;10.10;;
12921;SDS011;6528;48.086;16.282;2023-09-30T07:00:18;15.43;;;9.40;;
12921;SDS011;6528;48.086;16.282;2023-09-30T07:02:46;19.63;;;11.50;;
12921;SDS011;6528;48.086;16.282;2023-09-30T07:05:14;16.53;;;9.30;;
12921;SDS011;6528;48.086;16.282;2023-09-30T07:07:41;19.77;;;9.77;;
12921;SDS011;6528;48.086;16.282;2023-09-30T07:10:10;15.27;;;10.00;;
12921;SDS011;6528;48.086;16.282;2023-09-30T07:12:38;17.00;;;9.33;;
12921;SDS011;6528;48.086;16.282;2023-09-30T07:15:06;16.80;;;9.77;;
12921;SDS011;6528;48.086;16.282;2023-09-30T07:17:35;18.17;;;10.30;;
12921;SDS011;6528;48.086;16.282;2023-09-30T07:20:03;17.50;;;10.83;;
12921;SDS011;6528;48.086;16.282;2023-09-30T07:22:32;16.80;;;10.17;;
12921;SDS011;6528;48.086;16.282;2023-09-30T07:25:15;17.00;;;9.73;;
12921;SDS011;6528;48.086;16.282;2023-09-30T07:27:43;14.07;;;8.43;;
12921;SDS011;6528;48.086;16.282;2023-09-30T07:30:12;13.80;;;9.60;;
12921;SDS011;6528;48.086;16.282;2023-09-30T07:32:42;15.03;;;9.50;;
12921;SDS011;6528;48.086;16.282;2023-09-30T07:35:11;16.50;;;9.50;;
12921;SDS011;6528;48.086;16.282;2023-09-30T07:37:42;17.33;;;10.30;;
12921;SDS011;6528;48.086;16.282;2023-09-30T07:40:10;17.27;;;10.17;;
12921;SDS011;6528;48.086;16.282;2023-09-30T07:42:38;17.53;;;9.23;;
12921;SDS011;6528;48.086;16.282;2023-09-30T07:45:05;16.73;;;9.87;;
12921;SDS011;6528;48.086;16.282;2023-09-30T07:47:33;16.77;;;10.20;;
12921;SDS011;6528;48.086;16.282;2023-09-30T07:50:01;15.70;;;9.60;;
12921;SDS011;6528;48.086;16.282;2023-09-30T07:52:33;16.97;;;9.80;;
12921;SDS011;6528;48.086;16.282;2023-09-30T07:55:00;15.70;;;9.10;;
12921;SDS011;6528;48.086;16.282;2023-09-30T07:57:27;17.40;;;9.73;;
12921;SDS011;6528;48.086;16.282;2023-09-30T07:59:54;16.20;;;9.83;;
12921;SDS011;6528;48.086;16.282;2023-09-30T08:02:22;15.83;;;9.67;;
12921;SDS011;6528;48.086;16.282;2023-09-30T08:04:50;22.70;;;10.30;;
12921;SDS011;6528;48.086;16.282;2023-09-30T08:07:18;14.60;;;9.33;;
12921;SDS011;6528;48.086;16.282;2023-09-30T08:09:45;14.60;;;8.83;;
12921;SDS011;6528;48.086;16.282;2023-09-30T08:12:14;16.60;;;10.23;;
12921;SDS011;6528;48.086;16.282;2023-09-30T08:14:41;12.53;;;9.00;;
12921;SDS011;6528;48.086;16.282;2023-09-30T08:17:11;15.97;;;9.63;;
12921;SDS011;6528;48.086;16.282;2023-09-30T08:19:38;15.97;;;9.07;;
12921;SDS011;6528;48.086;16.282;2023-09-30T08:22:08;14.33;;;9.27;;
12921;SDS011;6528;48.086;16.282;2023-09-30T08:24:36;15.20;;;9.63;;
12921;SDS011;6528;48.086;16.282;2023-09-30T08:27:02;15.57;;;9.60;;
12921;SDS011;6528;48.086;16.282;2023-09-30T08:29:29;19.10;;;9.80;;
12921;SDS011;6528;48.086;16.282;2023-09-30T08:31:56;15.80;;;8.97;;
12921;SDS011;6528;48.086;16.282;2023-09-30T08:34:23;15.20;;;9.13;;
12921;SDS011;6528;48.086;16.282;2023-09-30T08:36:50;15.37;;;9.30;;
12921;SDS011;6528;48.086;16.282;2023-09-30T08:39:17;13.20;;;8.57;;
12921;SDS011;6528;48.086;16.282;2023-09-30T08:41:44;14.83;;;9.33;;
12921;SDS011;6528;48.086;16.282;2023-09-30T08:44:11;16.77;;;9.67;;
12921;SDS011;6528;48.086;16.282;2023-09-30T08:46:39;16.20;;;9.47;;
12921;SDS011;6528;48.086;16.282;2023-09-30T08:49:08;15.80;;;9.50;;
12921;SDS011;6528;48.086;16.282;2023-09-30T08:51:37;15.50;;;10.57;;
12921;SDS011;6528;48.086;16.282;2023-09-30T08:54:05;13.73;;;9.00;;
12921;SDS011;6528;48.086;16.282;2023-09-30T08:56:33;16.03;;;9.63;;
12921;SDS011;6528;48.086;16.282;2023-09-30T08:59:01;14.57;;;8.80;;
12921;SDS011;6528;48.086;16.282;2023-09-30T09:01:30;12.50;;;8.60;;
12921;SDS011;6528;48.086;16.282;2023-09-30T09:03:57;15.53;;;8.67;;
12921;SDS011;6528;48.086;16.282;2023-09-30T09:06:25;14.60;;;8.53;;
12921;SDS011;6528;48.086;16.282;2023-09-30T09:08:53;16.47;;;9.50;;
12921;SDS011;6528;48.086;16.282;2023-09-30T09:11:20;15.17;;;8.87;;
12921;SDS011;6528;48.086;16.282;2023-09-30T09:13:50;14.83;;;8.00;;
12921;SDS011;6528;48.086;16.282;2023-09-30T09:16:22;18.60;;;9.40;;
12921;SDS011;6528;48.086;16.282;2023-09-30T09:18:52;17.63;;;9.43;;
12921;SDS011;6528;48.086;16.282;2023-09-30T09:21:20;12.93;;;8.73;;
12921;SDS011;6528;48.086;16.282;2023-09-30T09:23:53;12.50;;;8.40;;
12921;SDS011;6528;48.086;16.282;2023-09-30T09:26:28;12.53;;;8.23;;
12921;SDS011;6528;48.086;16.282;2023-09-30T09:28:59;12.87;;;7.53;;
12921;SDS011;6528;48.086;16.282;2023-09-30T09:31:28;12.90;;;7.70;;
12921;SDS011;6528;48.086;16.282;2023-09-30T09:33:56;12.17;;;7.80;;
12921;SDS011;6528;48.086;16.282;2023-09-30T09:36:43;13.70;;;7.80;;
12921;SDS011;6528;48.086;16.282;2023-09-30T09:39:11;12.20;;;8.00;;
12921;SDS011;6528;48.086;16.282;2023-09-30T09:41:49;11.80;;;7.83;;
12921;SDS011;6528;48.086;16.282;2023-09-30T09:44:22;13.33;;;8.03;;
12921;SDS011;6528;48.086;16.282;2023-09-30T09:46:49;12.93;;;7.43;;
12921;SDS011;6528;48.086;16.282;2023-09-30T09:49:17;10.50;;;6.30;;
12921;SDS011;6528;48.086;16.282;2023-09-30T09:51:45;11.30;;;7.13;;
12921;SDS011;6528;48.086;16.282;2023-09-30T09:54:14;11.27;;;6.80;;
12921;SDS011;6528;48.086;16.282;2023-09-30T09:56:43;12.20;;;7.10;;
12921;SDS011;6528;48.086;16.282;2023-09-30T09:59:12;10.20;;;6.77;;
12921;SDS011;6528;48.086;16.282;2023-09-30T10:01:42;13.17;;;7.53;;
12921;SDS011;6528;48.086;16.282;2023-09-30T10:04:12;14.53;;;8.10;;
12921;SDS011;6528;48.086;16.282;2023-09-30T10:06:43;13.20;;;7.87;;
12921;SDS011;6528;48.086;16.282;2023-09-30T10:09:14;11.77;;;7.40;;
12921;SDS011;6528;48.086;16.282;2023-09-30T10:11:43;13.40;;;7.33;;
12921;SDS011;6528;48.086;16.282;2023-09-30T10:14:29;11.70;;;7.50;;
12921;SDS011;6528;48.086;16.282;2023-09-30T10:16:59;12.30;;;7.57;;
12921;SDS011;6528;48.086;16.282;2023-09-30T10:19:26;12.53;;;8.17;;
12921;SDS011;6528;48.086;16.282;2023-09-30T10:24:54;10.53;;;7.00;;
12921;SDS011;6528;48.086;16.282;2023-09-30T10:40:52;12.50;;;8.00;;
12921;SDS011;6528;48.086;16.282;2023-09-30T10:48:53;11.80;;;7.50;;
12921;SDS011;6528;48.086;16.282;2023-09-30T10:51:22;11.77;;;7.40;;
12921;SDS011;6528;48.086;16.282;2023-09-30T10:53:51;11.17;;;7.47;;
12921;SDS011;6528;48.086;16.282;2023-09-30T10:56:23;10.80;;;7.07;;
12921;SDS011;6528;48.086;16.282;2023-09-30T10:58:58;11.47;;;7.17;;
12921;SDS011;6528;48.086;16.282;2023-09-30T11:01:31;9.80;;;7.17;;
12921;SDS011;6528;48.086;16.282;2023-09-30T11:04:02;12.60;;;8.47;;
12921;SDS011;6528;48.086;16.282;2023-09-30T11:06:32;12.37;;;8.00;;
12921;SDS011;6528;48.086;16.282;2023-09-30T11:09:00;12.30;;;7.80;;
12921;SDS011;6528;48.086;16.282;2023-09-30T11:11:33;11.90;;;7.73;;
12921;SDS011;6528;48.086;16.282;2023-09-30T11:14:16;9.80;;;6.90;;
12921;SDS011;6528;48.086;16.282;2023-09-30T11:16:43;13.60;;;7.40;;
12921;SDS011;6528;48.086;16.282;2023-09-30T11:19:11;10.60;;;7.13;;
12921;SDS011;6528;48.086;16.282;2023-09-30T11:21:39;10.80;;;7.77;;
12921;SDS011;6528;48.086;16.282;2023-09-30T11:24:07;14.60;;;7.97;;
12921;SDS011;6528;48.086;16.282;2023-09-30T11:26:35;13.73;;;8.60;;
12921;SDS011;6528;48.086;16.282;2023-09-30T11:29:15;16.53;;;7.80;;
12921;SDS011;6528;48.086;16.282;2023-09-30T11:31:44;11.37;;;7.93;;
12921;SDS011;6528;48.086;16.282;2023-09-30T11:34:15;13.67;;;8.23;;
12921;SDS011;6528;48.086;16.282;2023-09-30T11:36:50;11.90;;;7.67;;
12921;SDS011;6528;48.086;16.282;2023-09-30T11:39:22;13.20;;;8.23;;
12921;SDS011;6528;48.086;16.282;2023-09-30T11:41:50;12.27;;;8.50;;
12921;SDS011;6528;48.086;16.282;2023-09-30T11:44:18;13.17;;;7.07;;
12921;SDS011;6528;48.086;16.282;2023-09-30T11:46:53;12.23;;;8.70;;
12921;SDS011;6528;48.086;16.282;2023-09-30T11:49:39;14.33;;;8.93;;
12921;SDS011;6528;48.086;16.282;2023-09-30T11:52:11;10.30;;;7.80;;
12921;SDS011;6528;48.086;16.282;2023-09-30T11:54:43;11.53;;;8.10;;
12921;SDS011;6528;48.086;16.282;2023-09-30T11:57:16;11.37;;;7.63;;
12921;SDS011;6528;48.086;16.282;2023-09-30T11:59:45;14.43;;;8.77;;
12921;SDS011;6528;48.086;16.282;2023-09-30T12:02:15;12.67;;;7.80;;
12921;SDS011;6528;48.086;16.282;2023-09-30T12:04:44;12.23;;;8.07;;
12921;SDS011;6528;48.086;16.282;2023-09-30T12:07:14;11.00;;;8.00;;
12921;SDS011;6528;48.086;16.282;2023-09-30T12:09:41;14.03;;;8.70;;
12921;SDS011;6528;48.086;16.282;2023-09-30T12:12:09;12.07;;;8.80;;
12921;SDS011;6528;48.086;16.282;2023-09-30T12:14:38;14.60;;;8.73;;
12921;SDS011;6528;48.086;16.282;2023-09-30T12:17:07;11.90;;;8.67;;
12921;SDS011;6528;48.086;16.282;2023-09-30T12:19:39;14.20;;;8.60;;
12921;SDS011;6528;48.086;16.282;2023-09-30T12:22:08;13.43;;;9.07;;
12921;SDS011;6528;48.086;16.282;2023-09-30T12:24:36;13.50;;;9.03;;
12921;SDS011;6528;48.086;16.282;2023-09-30T12:27:03;12.70;;;8.63;;
12921;SDS011;6528;48.086;16.282;2023-09-30T12:29:31;15.40;;;8.47;;
12921;SDS011;6528;48.086;16.282;2023-09-30T12:31:58;19.03;;;10.13;;
12921;SDS011;6528;48.086;16.282;2023-09-30T12:34:26;12.37;;;8.80;;
12921;SDS011;6528;48.086;16.282;2023-09-30T12:36:54;14.13;;;9.13;;
12921;SDS011;6528;48.086;16.282;2023-09-30T12:39:23;14.30;;;9.00;;
12921;SDS011;6528;48.086;16.282;2023-09-30T12:41:53;15.83;;;9.53;;
12921;SDS011;6528;48.086;16.282;2023-09-30T12:44:20;14.20;;;9.67;;
12921;SDS011;6528;48.086;16.282;2023-09-30T12:46:47;14.30;;;8.87;;
12921;SDS011;6528;48.086;16.282;2023-09-30T12:49:14;18.33;;;10.70;;
12921;SDS011;6528;48.086;16.282;2023-09-30T12:51:41;16.30;;;9.70;;
12921;SDS011;6528;48.086;16.282;2023-09-30T12:54:08;16.37;;;10.50;;
12921;SDS011;6528;48.086;16.282;2023-09-30T12:56:37;18.60;;;10.90;;
12921;SDS011;6528;48.086;16.282;2023-09-30T12:59:04;15.70;;;9.30;;
12921;SDS011;6528;48.086;16.282;2023-09-30T13:01:31;17.33;;;10.00;;
12921;SDS011;6528;48.086;16.282;2023-09-30T13:04:01;19.97;;;10.77;;
12921;SDS011;6528;48.086;16.282;2023-09-30T13:06:29;19.50;;;10.10;;
12921;SDS011;6528;48.086;16.282;2023-09-30T13:08:59;17.37;;;10.17;;
12921;SDS011;6528;48.086;16.282;2023-09-30T13:11:26;17.67;;;10.17;;
12921;SDS011;6528;48.086;16.282;2023-09-30T13:13:54;17.60;;;10.17;;
12921;SDS011;6528;48.086;16.282;2023-09-30T13:16:21;15.40;;;10.43;;
12921;SDS011;6528;48.086;16.282;2023-09-30T13:18:49;13.10;;;9.80;;
12921;SDS011;6528;48.086;16.282;2023-09-30T13:21:19;16.00;;;9.70;;
12921;SDS011;6528;48.086;16.282;2023-09-30T13:23:46;17.20;;;10.20;;
12921;SDS011;6528;48.086;16.282;2023-09-30T13:26:13;16.07;;;9.13;;
12921;SDS011;6528;48.086;16.282;2023-09-30T13:28:40;17.20;;;10.23;;
12921;SDS011;6528;48.086;16.282;2023-09-30T13:31:08;13.30;;;9.33;;
12921;SDS011;6528;48.086;16.282;2023-09-30T13:33:35;18.13;;;10.57;;
12921;SDS011;6528;48.086;16.282;2023-09-30T13:36:02;15.07;;;10.60;;
12921;SDS011;6528;48.086;16.282;2023-09-30T13:38:29;15.30;;;10.00;;
12921;SDS011;6528;48.086;16.282;2023-09-30T13:40:56;14.70;;;9.30;;
12921;SDS011;6528;48.086;16.282;2023-09-30T13:43:23;16.03;;;10.47;;
12921;SDS011;6528;48.086;16.282;2023-09-30T13:45:50;19.77;;;10.60;;
12921;SDS011;6528;48.086;16.282;2023-09-30T13:48:17;16.50;;;10.00;;
12921;SDS011;6528;48.086;16.282;2023-09-30T13:50:44;18.70;;;10.07;;
12921;SDS011;6528;48.086;16.282;2023-09-30T13:53:11;19.40;;;11.40;;
12921;SDS011;6528;48.086;16.282;2023-09-30T13:55:38;17.10;;;11.87;;
12921;SDS011;6528;48.086;16.282;2023-09-30T13:58:06;19.40;;;10.20;;
12921;SDS011;6528;48.086;16.282;2023-09-30T14:00:33;17.57;;;11.17;;
12921;SDS011;6528;48.086;16.282;2023-09-30T14:03:00;15.03;;;10.70;;
12921;SDS011;6528;48.086;16.282;2023-09-30T14:05:27;23.43;;;12.00;;
12921;SDS011;6528;48.086;16.282;2023-09-30T14:07:54;18.20;;;11.57;;
12921;SDS011;6528;48.086;16.282;2023-09-30T14:10:21;18.77;;;10.97;;
12921;SDS011;6528;48.086;16.282;2023-09-30T14:12:51;18.60;;;11.87;;
12921;SDS011;6528;48.086;16.282;2023-09-30T14:15:18;21.83;;;12.33;;
12921;SDS011;6528;48.086;16.282;2023-09-30T14:17:44;16.60;;;11.00;;
12921;SDS011;6528;48.086;16.282;2023-09-30T14:20:11;19.60;;;11.93;;
12921;SDS011;6528;48.086;16.282;2023-09-30T14:22:39;18.83;;;11.77;;
12921;SDS011;6528;48.086;16.282;2023-09-30T14:25:06;17.70;;;12.27;;
12921;SDS011;6528;48.086;16.282;2023-09-30T14:27:34;19.73;;;12.50;;
12921;SDS011;6528;48.086;16.282;2023-09-30T14:30:01;20.03;;;12.17;;
12921;SDS011;6528;48.086;16.282;2023-09-30T14:32:28;18.83;;;11.40;;
12921;SDS011;6528;48.086;16.282;2023-09-30T14:34:55;17.30;;;12.07;;
12921;SDS011;6528;48.086;16.282;2023-09-30T14:37:24;18.87;;;11.93;;
12921;SDS011;6528;48.086;16.282;2023-09-30T14:39:51;17.40;;;11.03;;
12921;SDS011;6528;48.086;16.282;2023-09-30T14:42:18;19.60;;;12.50;;
12921;SDS011;6528;48.086;16.282;2023-09-30T14:44:45;18.27;;;11.73;;
12921;SDS011;6528;48.086;16.282;2023-09-30T14:47:12;18.30;;;12.20;;
12921;SDS011;6528;48.086;16.282;2023-09-30T14:49:39;18.43;;;11.73;;
12921;SDS011;6528;48.086;16.282;2023-09-30T14:52:07;20.20;;;12.13;;
12921;SDS011;6528;48.086;16.282;2023-09-30T14:54:36;17.03;;;11.17;;
12921;SDS011;6528;48.086;16.282;2023-09-30T14:57:03;18.07;;;11.10;;
12921;SDS011;6528;48.086;16.282;2023-09-30T14:59:32;13.90;;;9.70;;
12921;SDS011;6528;48.086;16.282;2023-09-30T15:02:00;16.80;;;10.27;;
12921;SDS011;6528;48.086;16.282;2023-09-30T15:04:27;15.50;;;10.23;;
12921;SDS011;6528;48.086;16.282;2023-09-30T15:06:55;16.87;;;10.70;;
12921;SDS011;6528;48.086;16.282;2023-09-30T15:09:22;16.40;;;9.60;;
12921;SDS011;6528;48.086;16.282;2023-09-30T15:11:49;16.53;;;10.37;;